createdAt,value
2018-09-10T00:00:03.093Z,16.46
2018-09-10T00:02:31.487Z,16.39
2018-09-10T00:04:59.898Z,16.35
2018-09-10T00:07:28.266Z,16.29
2018-09-10T00:09:56.646Z,16.22
2018-09-10T00:12:25.047Z,16.16
2018-09-10T00:14:53.418Z,16.12
2018-09-10T00:17:21.809Z,16.07
2018-09-10T00:19:50.190Z,16.03
2018-09-10T00:22:18.639Z,15.96
2018-09-10T00:24:47.001Z,15.91
2018-09-10T00:27:15.395Z,15.88
2018-09-10T00:29:43.753Z,15.84
2018-09-10T00:32:12.139Z,15.78
2018-09-10T00:34:40.510Z,15.75
2018-09-10T00:37:08.898Z,15.70
2018-09-10T00:39:37.274Z,15.65
2018-09-10T00:42:05.667Z,15.63
2018-09-10T00:44:34.038Z,15.60
2018-09-10T00:47:02.420Z,15.58
2018-09-10T00:49:30.787Z,15.56
2018-09-10T00:51:59.178Z,15.52
2018-09-10T00:54:27.559Z,15.48
2018-09-10T00:56:55.955Z,15.43
2018-09-10T00:59:24.322Z,15.41
2018-09-10T01:01:52.716Z,15.39
2018-09-10T01:04:21.089Z,15.33
2018-09-10T01:06:49.479Z,15.27
2018-09-10T01:09:17.948Z,15.15
2018-09-10T01:11:46.430Z,15.12
2018-09-10T01:14:14.795Z,15.07
2018-09-10T01:16:43.194Z,15.04
2018-09-10T01:19:11.558Z,14.98
2018-09-10T01:21:40.051Z,14.97
2018-09-10T01:24:08.417Z,14.94
2018-09-10T01:26:36.809Z,14.89
2018-09-10T01:29:05.175Z,14.88
2018-09-10T01:31:33.561Z,14.86
2018-09-10T01:34:07.270Z,14.84
2018-09-10T01:36:35.662Z,14.81
2018-09-10T01:39:05.175Z,14.80
2018-09-10T01:41:33.575Z,14.76
2018-09-10T01:44:01.948Z,14.73
2018-09-10T01:46:30.366Z,14.69
2018-09-10T01:48:58.722Z,14.64
2018-09-10T01:51:27.107Z,14.59
2018-09-10T01:53:55.474Z,14.58
2018-09-10T01:56:23.866Z,14.56
2018-09-10T01:58:52.234Z,14.49
2018-09-10T02:01:20.618Z,14.44
2018-09-10T02:03:48.987Z,14.38
2018-09-10T02:06:17.371Z,14.33
2018-09-10T02:08:45.733Z,14.28
2018-09-10T02:11:14.129Z,14.25
2018-09-10T02:13:42.493Z,14.23
2018-09-10T02:16:14.811Z,14.22
2018-09-10T02:18:43.883Z,14.22
2018-09-10T02:21:12.265Z,14.23
2018-09-10T02:23:40.661Z,14.25
2018-09-10T02:26:09.048Z,14.26
2018-09-10T02:28:37.431Z,14.28
2018-09-10T02:31:05.925Z,14.30
2018-09-10T02:33:34.312Z,14.33
2018-09-10T02:36:02.698Z,14.33
2018-09-10T02:38:31.119Z,14.36
2018-09-10T02:40:59.498Z,14.40
2018-09-10T02:43:27.888Z,14.42
2018-09-10T02:45:56.430Z,14.44
2018-09-10T02:48:24.823Z,14.46
2018-09-10T02:50:53.294Z,14.48
2018-09-10T02:53:21.683Z,14.50
2018-09-10T02:55:50.163Z,14.52
2018-09-10T02:58:18.550Z,14.53
2018-09-10T03:00:46.913Z,14.53
2018-09-10T03:03:15.299Z,14.53
2018-09-10T03:05:45.297Z,14.53
2018-09-10T03:08:13.681Z,14.51
2018-09-10T03:10:42.044Z,14.52
2018-09-10T03:13:10.442Z,14.53
2018-09-10T03:15:38.944Z,14.53
2018-09-10T03:18:07.380Z,14.53
2018-09-10T03:20:35.728Z,14.53
2018-09-10T03:23:04.138Z,14.53
2018-09-10T03:25:32.523Z,14.54
2018-09-10T03:28:00.926Z,14.56
2018-09-10T03:30:29.296Z,14.57
2018-09-10T03:32:57.688Z,14.56
2018-09-10T03:35:26.058Z,14.57
2018-09-10T03:37:54.462Z,14.59
2018-09-10T03:40:22.829Z,14.59
2018-09-10T03:42:51.330Z,14.59
2018-09-10T03:45:19.690Z,14.59
2018-09-10T03:47:48.079Z,14.58
2018-09-10T03:50:16.450Z,14.55
2018-09-10T03:52:44.834Z,14.53
2018-09-10T03:55:13.207Z,14.52
2018-09-10T03:57:41.597Z,14.39
2018-09-10T04:00:09.971Z,14.51
2018-09-10T04:02:38.359Z,14.50
2018-09-10T04:05:07.578Z,14.47
2018-09-10T04:07:35.957Z,14.45
2018-09-10T04:10:04.322Z,14.45
2018-09-10T04:12:32.714Z,14.44
2018-09-10T04:15:01.119Z,14.41
2018-09-10T04:17:29.491Z,14.40
2018-09-10T04:20:03.270Z,14.38
2018-09-10T04:22:31.654Z,14.37
2018-09-10T04:25:00.038Z,14.37
2018-09-10T04:27:28.402Z,14.39
2018-09-10T04:29:56.794Z,14.39
2018-09-10T04:32:25.275Z,14.40
2018-09-10T04:34:53.854Z,14.42
2018-09-10T04:37:22.246Z,14.43
2018-09-10T04:39:50.640Z,14.45
2018-09-10T04:42:19.172Z,14.48
2018-09-10T04:44:47.426Z,14.50
2018-09-10T04:47:15.785Z,14.54
2018-09-10T04:49:44.182Z,14.55
2018-09-10T04:52:12.557Z,14.58
2018-09-10T04:54:40.952Z,14.58
2018-09-10T04:57:09.322Z,14.59
2018-09-10T04:59:37.724Z,14.59
2018-09-10T05:02:06.103Z,14.61
2018-09-10T05:04:34.566Z,14.63
2018-09-10T05:07:04.315Z,14.65
2018-09-10T05:09:32.711Z,14.65
2018-09-10T05:12:01.094Z,14.64
2018-09-10T05:14:29.528Z,14.64
2018-09-10T05:16:57.894Z,14.64
2018-09-10T05:19:26.307Z,14.67
2018-09-10T05:21:54.720Z,14.69
2018-09-10T05:24:23.133Z,14.73
2018-09-10T05:26:51.506Z,14.77
2018-09-10T05:29:19.900Z,14.81
2018-09-10T05:31:48.269Z,14.87
2018-09-10T05:34:16.653Z,14.93
2018-09-10T05:36:45.047Z,15.00
2018-09-10T05:39:13.978Z,15.08
2018-09-10T05:41:42.413Z,15.19
2018-09-10T05:44:10.781Z,15.28
2018-09-10T05:46:39.155Z,15.37
2018-09-10T05:49:07.566Z,15.44
2018-09-10T05:51:35.943Z,15.51
2018-09-10T05:54:04.340Z,15.58
2018-09-10T05:56:32.706Z,15.63
2018-09-10T05:59:01.090Z,15.68
2018-09-10T06:01:29.459Z,15.68
2018-09-10T06:03:57.851Z,15.76
2018-09-10T06:06:26.219Z,15.80
2018-09-10T06:08:54.616Z,15.86
2018-09-10T06:11:22.991Z,15.90
2018-09-10T06:13:51.385Z,15.95
2018-09-10T06:16:19.751Z,16.01
2018-09-10T06:18:48.389Z,16.06
2018-09-10T06:21:16.775Z,16.14
2018-09-10T06:23:45.150Z,16.23
2018-09-10T06:26:13.783Z,16.32
2018-09-10T06:28:42.195Z,16.42
2018-09-10T06:31:10.591Z,16.53
2018-09-10T06:33:38.963Z,16.68
2018-09-10T06:36:07.359Z,16.82
2018-09-10T06:38:35.983Z,17.00
2018-09-10T06:41:04.382Z,17.16
2018-09-10T06:43:32.754Z,17.37
2018-09-10T06:46:01.205Z,17.59
2018-09-10T06:48:33.808Z,17.79
2018-09-10T06:51:02.531Z,18.00
2018-09-10T06:53:30.930Z,18.19
2018-09-10T06:55:59.318Z,18.37
2018-09-10T06:58:27.695Z,18.55
2018-09-10T07:00:56.093Z,18.70
2018-09-10T07:03:24.461Z,18.87
2018-09-10T07:05:52.854Z,19.00
2018-09-10T07:08:21.236Z,19.14
2018-09-10T07:10:49.675Z,19.25
2018-09-10T07:13:18.038Z,19.35
2018-09-10T07:15:46.445Z,19.47
2018-09-10T07:18:14.807Z,19.61
2018-09-10T07:20:43.206Z,19.75
2018-09-10T07:23:11.603Z,19.88
2018-09-10T07:25:39.991Z,19.98
2018-09-10T07:28:08.350Z,20.11
2018-09-10T07:30:36.891Z,20.26
2018-09-10T07:33:05.270Z,20.43
2018-09-10T07:35:33.655Z,20.56
2018-09-10T07:38:02.253Z,20.70
2018-09-10T07:40:30.651Z,20.85
2018-09-10T07:42:59.064Z,21.00
2018-09-10T07:45:27.451Z,21.13
2018-09-10T07:47:55.814Z,21.23
2018-09-10T07:50:24.286Z,21.36
2018-09-10T07:52:52.735Z,21.46
2018-09-10T07:55:21.123Z,21.54
2018-09-10T07:57:49.533Z,21.61
2018-09-10T08:00:17.925Z,21.69
2018-09-10T08:02:46.402Z,21.76
2018-09-10T08:05:14.807Z,21.81
2018-09-10T08:07:43.165Z,21.84
2018-09-10T08:10:11.550Z,21.86
2018-09-10T08:12:39.920Z,21.89
2018-09-10T08:15:08.317Z,21.91
2018-09-10T08:17:36.685Z,21.95
2018-09-10T08:20:05.328Z,21.99
2018-09-10T08:22:33.737Z,22.05
2018-09-10T08:25:02.133Z,22.08
2018-09-10T08:27:30.512Z,22.14
2018-09-10T08:29:58.878Z,22.21
2018-09-10T08:32:27.253Z,22.30
2018-09-10T08:34:55.650Z,22.44
2018-09-10T08:37:24.034Z,22.56
2018-09-10T08:39:52.403Z,22.70
2018-09-10T08:42:20.791Z,22.84
2018-09-10T08:44:49.157Z,23.00
2018-09-10T08:47:17.544Z,23.14
2018-09-10T08:49:45.998Z,23.28
2018-09-10T08:52:14.395Z,23.44
2018-09-10T08:54:42.983Z,23.58
2018-09-10T08:57:11.214Z,23.71
2018-09-10T08:59:39.570Z,23.83
2018-09-10T09:02:08.002Z,23.90
2018-09-10T09:04:36.362Z,24.00
2018-09-10T09:07:04.746Z,24.05
2018-09-10T09:09:33.138Z,24.14
2018-09-10T09:12:01.530Z,24.21
2018-09-10T09:14:29.975Z,24.27
2018-09-10T09:16:58.359Z,24.30
2018-09-10T09:19:26.724Z,24.34
2018-09-10T09:21:55.133Z,24.40
2018-09-10T09:24:23.503Z,24.43
2018-09-10T09:26:51.890Z,24.49
2018-09-10T09:29:20.288Z,24.56
2018-09-10T09:31:48.679Z,24.62
2018-09-10T09:34:17.046Z,24.68
2018-09-10T09:36:50.883Z,24.72
2018-09-10T09:39:24.554Z,24.78
2018-09-10T09:41:58.394Z,24.84
2018-09-10T09:44:32.126Z,24.90
2018-09-10T09:47:00.551Z,24.93
2018-09-10T09:49:28.965Z,24.95
2018-09-10T09:51:57.653Z,24.97
2018-09-10T09:54:26.014Z,25.01
2018-09-10T09:56:54.406Z,25.03
2018-09-10T09:59:22.858Z,25.03
2018-09-10T10:01:57.285Z,25.04
2018-09-10T10:04:25.839Z,25.03
2018-09-10T10:06:54.230Z,25.01
2018-09-10T10:09:22.598Z,25.03
2018-09-10T10:11:51.010Z,25.05
2018-09-10T10:14:19.374Z,25.05
2018-09-10T10:16:47.762Z,25.05
2018-09-10T10:19:16.126Z,25.05
2018-09-10T10:21:44.538Z,25.07
2018-09-10T10:24:12.907Z,25.09
2018-09-10T10:26:41.320Z,25.11
2018-09-10T10:29:09.682Z,25.14
2018-09-10T10:31:38.072Z,25.16
2018-09-10T10:34:06.519Z,25.20
2018-09-10T10:36:34.878Z,25.25
2018-09-10T10:39:04.173Z,25.28
2018-09-10T10:41:32.543Z,25.37
2018-09-10T10:44:00.935Z,25.43
2018-09-10T10:46:29.449Z,25.50
2018-09-10T10:48:57.840Z,25.56
2018-09-10T10:51:26.201Z,25.59
2018-09-10T10:53:54.607Z,25.67
2018-09-10T10:56:23.054Z,25.75
2018-09-10T10:58:51.442Z,25.79
2018-09-10T11:01:19.813Z,25.82
2018-09-10T11:03:48.207Z,25.83
2018-09-10T11:06:16.572Z,25.83
2018-09-10T11:08:45.127Z,25.83
2018-09-10T11:11:13.498Z,25.84
2018-09-10T11:13:41.895Z,25.84
2018-09-10T11:16:10.258Z,25.83
2018-09-10T11:18:38.690Z,25.82
2018-09-10T11:21:07.061Z,25.79
2018-09-10T11:23:35.482Z,25.79
2018-09-10T11:26:03.847Z,25.79
2018-09-10T11:28:32.258Z,25.79
2018-09-10T11:31:00.617Z,25.81
2018-09-10T11:33:29.004Z,25.85
2018-09-10T11:35:57.398Z,25.89
2018-09-10T11:38:25.797Z,25.93
2018-09-10T11:40:54.164Z,25.93
2018-09-10T11:43:22.721Z,25.91
2018-09-10T11:45:51.262Z,25.88
2018-09-10T11:48:19.647Z,25.83
2018-09-10T11:50:48.011Z,25.79
2018-09-10T11:53:16.395Z,25.74
2018-09-10T11:55:44.825Z,25.71
2018-09-10T11:58:13.182Z,25.65
2018-09-10T12:00:41.547Z,25.58
2018-09-10T12:03:09.930Z,25.54
2018-09-10T12:05:38.311Z,25.50
2018-09-10T12:08:06.699Z,25.49
2018-09-10T12:10:35.078Z,25.50
2018-09-10T12:13:03.464Z,25.52
2018-09-10T12:15:31.935Z,25.57
2018-09-10T12:18:00.317Z,25.63
2018-09-10T12:20:28.678Z,25.74
2018-09-10T12:22:57.087Z,25.85
2018-09-10T12:25:25.471Z,26.00
2018-09-10T12:27:53.838Z,26.13
2018-09-10T12:30:22.235Z,26.20
2018-09-10T12:32:50.600Z,26.26
2018-09-10T12:35:19.199Z,26.28
2018-09-10T12:37:47.579Z,26.32
2018-09-10T12:40:16.002Z,26.39
2018-09-10T12:42:44.366Z,26.44
2018-09-10T12:45:12.763Z,26.46
2018-09-10T12:47:41.135Z,26.47
2018-09-10T12:50:09.534Z,26.46
2018-09-10T12:52:37.930Z,26.41
2018-09-10T12:55:06.601Z,26.37
2018-09-10T12:57:34.961Z,26.31
2018-09-10T13:00:03.380Z,26.24
2018-09-10T13:02:31.754Z,26.16
2018-09-10T13:05:00.151Z,26.10
2018-09-10T13:07:28.557Z,26.01
2018-09-10T13:09:56.951Z,25.97
2018-09-10T13:12:25.319Z,25.88
2018-09-10T13:14:53.740Z,25.82
2018-09-10T13:17:22.112Z,25.77
2018-09-10T13:19:50.510Z,25.73
2018-09-10T13:22:18.909Z,25.72
2018-09-10T13:24:47.302Z,25.73
2018-09-10T13:27:15.670Z,25.74
2018-09-10T13:29:44.126Z,25.77
2018-09-10T13:32:12.451Z,25.81
2018-09-10T13:34:40.851Z,25.87
2018-09-10T13:37:09.227Z,25.93
2018-09-10T13:39:37.628Z,25.99
2018-09-10T13:42:06.003Z,26.06
2018-09-10T13:44:34.398Z,26.10
2018-09-10T13:47:02.759Z,26.16
2018-09-10T13:49:31.154Z,26.20
2018-09-10T13:51:59.533Z,26.23
2018-09-10T13:54:27.930Z,26.25
2018-09-10T13:56:56.411Z,26.29
2018-09-10T13:59:24.808Z,26.33
2018-09-10T14:01:53.183Z,26.33
2018-09-10T14:04:21.578Z,26.33
2018-09-10T14:06:49.950Z,26.37
2018-09-10T14:09:18.338Z,26.40
2018-09-10T14:11:46.773Z,26.46
2018-09-10T14:14:15.175Z,26.54
2018-09-10T14:16:43.564Z,26.63
2018-09-10T14:19:11.958Z,26.71
2018-09-10T14:21:40.342Z,26.72
2018-09-10T14:24:08.749Z,26.69
2018-09-10T14:26:37.114Z,26.64
2018-09-10T14:29:05.490Z,26.58
2018-09-10T14:31:33.922Z,26.55
2018-09-10T14:34:02.311Z,26.52
2018-09-10T14:36:30.706Z,26.48
2018-09-10T14:38:59.078Z,26.43
2018-09-10T14:41:27.467Z,26.36
2018-09-10T14:43:55.826Z,26.30
2018-09-10T14:46:24.222Z,26.23
2018-09-10T14:48:52.594Z,26.16
2018-09-10T14:51:20.991Z,26.08
2018-09-10T14:53:49.362Z,26.00
2018-09-10T14:56:17.851Z,25.91
2018-09-10T14:58:46.290Z,25.84
2018-09-10T15:01:14.673Z,25.80
2018-09-10T15:03:43.038Z,25.76
2018-09-10T15:06:11.436Z,25.74
2018-09-10T15:08:39.804Z,25.71
2018-09-10T15:11:08.195Z,25.65
2018-09-10T15:13:36.560Z,25.59
2018-09-10T15:16:04.943Z,25.53
2018-09-10T15:18:33.465Z,25.46
2018-09-10T15:21:01.726Z,25.38
2018-09-10T15:23:30.118Z,25.31
2018-09-10T15:25:58.529Z,25.23
2018-09-10T15:28:26.894Z,25.14
2018-09-10T15:30:55.287Z,25.09
2018-09-10T15:33:23.646Z,25.03
2018-09-10T15:35:52.036Z,24.99
2018-09-10T15:38:20.398Z,24.95
2018-09-10T15:40:48.778Z,24.94
2018-09-10T15:43:17.155Z,24.92
2018-09-10T15:45:45.560Z,24.89
2018-09-10T15:48:13.931Z,24.85
2018-09-10T15:50:42.326Z,24.81
2018-09-10T15:53:10.691Z,24.77
2018-09-10T15:55:39.074Z,24.74
2018-09-10T15:58:07.429Z,24.70
2018-09-10T16:00:35.810Z,24.67
2018-09-10T16:03:04.266Z,24.64
2018-09-10T16:05:32.650Z,24.60
2018-09-10T16:08:01.030Z,24.56
2018-09-10T16:10:29.418Z,24.51
2018-09-10T16:12:57.774Z,24.46
2018-09-10T16:15:26.158Z,24.40
2018-09-10T16:17:54.522Z,24.35
2018-09-10T16:20:22.911Z,24.28
2018-09-10T16:22:51.338Z,24.22
2018-09-10T16:25:19.735Z,24.17
2018-09-10T16:27:48.123Z,24.08
2018-09-10T16:30:16.495Z,24.02
2018-09-10T16:32:44.915Z,23.96
2018-09-10T16:35:13.295Z,23.89
2018-09-10T16:37:41.690Z,23.83
2018-09-10T16:40:10.152Z,23.80
2018-09-10T16:42:38.558Z,23.77
2018-09-10T16:45:06.930Z,23.73
2018-09-10T16:47:35.319Z,23.69
2018-09-10T16:50:03.691Z,23.66
2018-09-10T16:52:32.078Z,23.63
2018-09-10T16:55:00.587Z,23.59
2018-09-10T16:57:28.865Z,23.53
2018-09-10T16:59:57.243Z,23.49
2018-09-10T17:02:25.630Z,23.44
2018-09-10T17:04:53.990Z,23.39
2018-09-10T17:07:22.382Z,23.35
2018-09-10T17:09:50.748Z,23.27
2018-09-10T17:12:19.167Z,23.23
2018-09-10T17:14:47.530Z,23.18
2018-09-10T17:17:15.929Z,23.15
2018-09-10T17:19:44.309Z,23.09
2018-09-10T17:22:12.726Z,23.04
2018-09-10T17:24:41.092Z,23.00
2018-09-10T17:27:09.569Z,22.95
2018-09-10T17:29:37.964Z,22.89
2018-09-10T17:32:06.374Z,22.83
2018-09-10T17:34:34.741Z,22.78
2018-09-10T17:37:03.126Z,22.72
2018-09-10T17:39:31.487Z,22.69
2018-09-10T17:41:59.873Z,22.62
2018-09-10T17:44:28.598Z,22.58
2018-09-10T17:46:57.224Z,22.53
2018-09-10T17:49:25.567Z,22.50
2018-09-10T17:51:54.022Z,22.47
2018-09-10T17:54:22.400Z,22.42
2018-09-10T17:56:50.789Z,22.40
2018-09-10T17:59:19.152Z,22.37
2018-09-10T18:01:47.545Z,22.35
2018-09-10T18:04:15.909Z,22.32
2018-09-10T18:06:44.318Z,22.30
2018-09-10T18:09:13.362Z,22.27
2018-09-10T18:11:42.269Z,22.25
2018-09-10T18:14:10.651Z,22.22
2018-09-10T18:16:39.037Z,22.18
2018-09-10T18:19:07.398Z,22.16
2018-09-10T18:21:35.933Z,22.12
2018-09-10T18:24:04.860Z,22.09
2018-09-10T18:26:33.280Z,22.05
2018-09-10T18:29:01.853Z,22.00
2018-09-10T18:31:30.227Z,21.96
2018-09-10T18:33:58.613Z,21.92
2018-09-10T18:36:26.969Z,21.89
2018-09-10T18:38:55.346Z,21.86
2018-09-10T18:41:23.707Z,21.82
2018-09-10T18:43:52.089Z,21.78
2018-09-10T18:46:20.445Z,21.76
2018-09-10T18:48:48.879Z,21.73
2018-09-10T18:51:17.223Z,21.71
2018-09-10T18:53:45.605Z,21.68
2018-09-10T18:56:13.968Z,21.66
2018-09-10T18:58:42.371Z,21.62
2018-09-10T19:01:10.840Z,21.58
2018-09-10T19:03:39.225Z,21.55
2018-09-10T19:06:07.590Z,21.50
2018-09-10T19:08:35.981Z,21.44
2018-09-10T19:11:04.352Z,21.40
2018-09-10T19:13:32.751Z,21.37
2018-09-10T19:16:01.123Z,21.31
2018-09-10T19:18:40.907Z,21.27
2018-09-10T19:21:09.661Z,21.21
2018-09-10T19:23:38.786Z,21.17
2018-09-10T19:26:07.777Z,21.12
2018-09-10T19:28:36.201Z,21.08
2018-09-10T19:31:04.570Z,21.04
2018-09-10T19:33:33.292Z,21.02
2018-09-10T19:36:01.659Z,20.99
2018-09-10T19:38:30.050Z,20.98
2018-09-10T19:40:58.419Z,20.96
2018-09-10T19:43:26.823Z,20.93
2018-09-10T19:45:55.187Z,20.89
2018-09-10T19:48:23.574Z,20.84
2018-09-10T19:50:52.075Z,20.81
2018-09-10T19:53:20.478Z,20.76
2018-09-10T19:55:48.848Z,20.71
2018-09-10T19:58:17.238Z,20.67
2018-09-10T20:00:45.692Z,20.62
2018-09-10T20:03:14.073Z,20.57
2018-09-10T20:05:42.546Z,20.52
2018-09-10T20:08:10.934Z,20.49
2018-09-10T20:10:39.295Z,20.46
2018-09-10T20:13:07.698Z,20.44
2018-09-10T20:15:36.075Z,20.40
2018-09-10T20:18:04.466Z,20.35
2018-09-10T20:20:32.826Z,20.31
2018-09-10T20:23:01.288Z,20.28
2018-09-10T20:25:29.649Z,20.28
2018-09-10T20:27:58.026Z,20.25
2018-09-10T20:30:26.408Z,20.21
2018-09-10T20:32:54.807Z,20.16
2018-09-10T20:35:23.174Z,20.12
2018-09-10T20:37:51.551Z,20.07
2018-09-10T20:40:19.938Z,20.05
2018-09-10T20:42:48.310Z,20.01
2018-09-10T20:45:16.700Z,19.99
2018-09-10T20:47:45.063Z,19.98
2018-09-10T20:50:13.447Z,19.97
2018-09-10T20:52:41.843Z,19.95
2018-09-10T20:55:09.850Z,19.93
2018-09-10T20:57:38.209Z,19.92
2018-09-10T21:00:06.602Z,19.90
2018-09-10T21:02:34.973Z,19.88
2018-09-10T21:05:03.357Z,19.85
2018-09-10T21:07:31.783Z,19.84
2018-09-10T21:10:00.136Z,19.83
2018-09-10T21:12:28.502Z,19.82
2018-09-10T21:14:56.899Z,19.81
2018-09-10T21:17:25.257Z,19.80
2018-09-10T21:19:53.647Z,19.79
2018-09-10T21:22:22.036Z,19.77
2018-09-10T21:24:50.462Z,19.76
2018-09-10T21:27:18.826Z,19.74
2018-09-10T21:29:47.210Z,19.71
2018-09-10T21:32:15.575Z,19.67
2018-09-10T21:34:43.978Z,19.64
2018-09-10T21:37:12.365Z,19.61
2018-09-10T21:39:40.880Z,19.60
2018-09-10T21:42:09.253Z,19.59
2018-09-10T21:44:37.644Z,19.59
2018-09-10T21:47:06.356Z,19.57
2018-09-10T21:49:34.646Z,19.55
2018-09-10T21:52:03.019Z,19.54
2018-09-10T21:54:31.501Z,19.52
2018-09-10T21:56:59.872Z,19.50
2018-09-10T21:59:28.268Z,19.47
2018-09-10T22:01:56.625Z,19.45
2018-09-10T22:04:25.018Z,19.41
2018-09-10T22:06:53.424Z,19.37
2018-09-10T22:09:21.814Z,19.34
2018-09-10T22:12:05.610Z,19.33
2018-09-10T22:14:34.686Z,19.29
2018-09-10T22:17:03.438Z,19.27
2018-09-10T22:19:31.823Z,19.25
2018-09-10T22:22:00.223Z,19.21
2018-09-10T22:24:28.619Z,19.16
2018-09-10T22:26:56.981Z,19.12
2018-09-10T22:29:25.366Z,19.09
2018-09-10T22:31:53.746Z,19.07
2018-09-10T22:34:22.126Z,19.03
2018-09-10T22:36:50.481Z,19.00
2018-09-10T22:39:18.866Z,18.98
2018-09-10T22:41:47.226Z,18.95
2018-09-10T22:44:15.672Z,18.94
2018-09-10T22:46:43.998Z,18.93
2018-09-10T22:49:12.355Z,18.92
2018-09-10T22:51:40.737Z,18.91
2018-09-10T22:54:09.278Z,18.89
2018-09-10T22:56:37.670Z,18.88
2018-09-10T22:59:06.218Z,18.87
2018-09-10T23:01:34.597Z,18.84
2018-09-10T23:04:02.998Z,18.83
2018-09-10T23:06:31.391Z,18.80
2018-09-10T23:08:59.762Z,18.80
2018-09-10T23:11:28.184Z,18.80
2018-09-10T23:13:56.550Z,18.79
2018-09-10T23:16:24.981Z,18.80
2018-09-10T23:18:53.333Z,18.81
2018-09-10T23:21:21.743Z,18.82
2018-09-10T23:23:50.113Z,18.83
2018-09-10T23:26:18.494Z,18.83
2018-09-10T23:28:46.854Z,18.83
2018-09-10T23:31:15.277Z,18.82
2018-09-10T23:33:43.661Z,18.82
2018-09-10T23:36:12.046Z,18.81
2018-09-10T23:38:40.418Z,18.82
2018-09-10T23:41:08.811Z,18.79
2018-09-10T23:43:37.190Z,18.78
2018-09-10T23:46:05.761Z,18.76
2018-09-10T23:48:34.122Z,18.74
2018-09-10T23:51:02.511Z,18.75
2018-09-10T23:53:30.878Z,18.74
2018-09-10T23:55:59.264Z,18.72
2018-09-10T23:58:27.636Z,18.72
